Time,TemperatureF,DewpointF,PressureIn,WindDirection,WindDirectionDegrees,WindSpeedMPH,WindSpeedGustMPH,Humidity,HourlyPrecipIn,Conditions,Clouds,dailyrainin,SolarRadiationWatts/m^2,SoftwareType,DateUTC
2013-09-17 00:14:00,45.0,42.0,30.27,East,101,3.0,6.0,88,0.00,,,0.00,0,weatherlink.com 1.10,2013-09-17 05:14:00,
2013-09-17 00:29:00,44.2,41.0,30.27,East,101,3.0,5.0,89,0.00,,,0.00,0,weatherlink.com 1.10,2013-09-17 05:29:00,
2013-09-17 00:44:00,43.5,41.0,30.27,East,101,2.0,5.0,89,0.00,,,0.00,0,weatherlink.com 1.10,2013-09-17 05:44:00,
2013-09-17 00:59:00,43.1,40.0,30.26,East,101,5.0,5.0,90,0.00,,,0.00,0,weatherlink.com 1.10,2013-09-17 05:59:00,
2013-09-17 01:14:00,42.8,40.0,30.26,East,101,5.0,6.0,90,0.00,,,0.00,0,weatherlink.com 1.10,2013-09-17 06:14:00,
2013-09-17 01:29:00,41.9,39.0,30.26,East,101,5.0,5.0,90,0.00,,,0.00,0,weatherlink.com 1.10,2013-09-17 06:29:00,
2013-09-17 01:44:00,41.1,38.0,30.26,East,101,1.0,3.0,90,0.00,,,0.00,0,weatherlink.com 1.10,2013-09-17 06:44:00,
2013-09-17 01:59:00,42.1,40.0,30.26,East,101,0.0,1.0,92,0.00,,,0.00,0,weatherlink.com 1.10,2013-09-17 06:59:00,
2013-09-17 02:14:00,42.3,40.0,30.26,East,101,0.0,0.0,91,0.00,,,0.00,0,weatherlink.com 1.10,2013-09-17 07:14:00,
2013-09-17 02:29:00,42.1,40.0,30.26,East,101,0.0,1.0,91,0.00,,,0.00,0,weatherlink.com 1.10,2013-09-17 07:29:00,
2013-09-17 02:44:00,42.2,40.0,30.26,East,101,0.0,0.0,92,0.00,,,0.00,0,weatherlink.com 1.10,2013-09-17 07:44:00,
2013-09-17 02:59:00,41.7,40.0,30.26,East,101,0.0,0.0,92,0.00,,,0.00,0,weatherlink.com 1.10,2013-09-17 07:59:00,
2013-09-17 03:14:00,42.4,40.0,30.26,East,101,0.0,1.0,92,0.00,,,0.00,0,weatherlink.com 1.10,2013-09-17 08:14:00,
2013-09-17 03:29:00,42.0,40.0,30.25,East,101,0.0,1.0,91,0.00,,,0.00,0,weatherlink.com 1.10,2013-09-17 08:29:00,
2013-09-17 03:44:00,41.6,40.0,30.25,East,101,0.0,0.0,92,0.00,,,0.00,0,weatherlink.com 1.10,2013-09-17 08:44:00,
2013-09-17 03:59:00,41.5,39.0,30.25,East,101,0.0,0.0,92,0.00,,,0.00,0,weatherlink.com 1.10,2013-09-17 08:59:00,
2013-09-17 04:14:00,41.1,39.0,30.25,East,101,0.0,0.0,92,0.00,,,0.00,0,weatherlink.com 1.10,2013-09-17 09:14:00,
2013-09-17 04:29:00,41.8,40.0,30.25,East,101,0.0,0.0,92,0.00,,,0.00,0,weatherlink.com 1.10,2013-09-17 09:29:00,
2013-09-17 04:44:00,41.2,39.0,30.25,East,101,0.0,2.0,92,0.00,,,0.00,0,weatherlink.com 1.10,2013-09-17 09:44:00,
2013-09-17 05:00:00,41.1,39.0,30.24,East,101,0.0,0.0,92,0.00,,,0.00,0,weatherlink.com 1.10,2013-09-17 10:00:00,
2013-09-17 05:15:00,41.4,39.0,30.24,East,101,0.0,0.0,92,0.00,,,0.00,0,weatherlink.com 1.10,2013-09-17 10:15:00,
2013-09-17 05:30:00,41.8,40.0,30.24,East,101,0.0,0.0,93,0.00,,,0.00,0,weatherlink.com 1.10,2013-09-17 10:30:00,
2013-09-17 05:45:00,41.7,40.0,30.24,East,101,0.0,2.0,92,0.00,,,0.00,0,weatherlink.com 1.10,2013-09-17 10:45:00,
2013-09-17 06:00:00,41.1,39.0,30.24,East,101,0.0,0.0,92,0.00,,,0.00,0,weatherlink.com 1.10,2013-09-17 11:00:00,
2013-09-17 06:15:00,41.1,39.0,30.23,East,101,0.0,2.0,93,0.01,,,0.01,0,weatherlink.com 1.10,2013-09-17 11:15:00,
2013-09-17 06:30:00,40.9,39.0,30.23,East,101,0.0,0.0,93,0.01,,,0.01,0,weatherlink.com 1.10,2013-09-17 11:30:00,
2013-09-17 06:45:00,40.4,38.0,30.23,East,101,0.0,0.0,92,0.01,,,0.01,5,weatherlink.com 1.10,2013-09-17 11:45:00,
2013-09-17 07:00:00,40.2,38.0,30.23,East,101,0.0,0.0,93,0.01,,,0.01,32,weatherlink.com 1.10,2013-09-17 12:00:00,
2013-09-17 07:15:00,41.0,39.0,30.24,East,101,0.0,0.0,93,0.00,,,0.01,58,weatherlink.com 1.10,2013-09-17 12:15:00,
2013-09-17 07:30:00,42.6,41.0,30.25,East,101,0.0,2.0,93,0.00,,,0.01,95,weatherlink.com 1.10,2013-09-17 12:30:00,
2013-09-17 07:45:00,45.1,44.0,30.24,East,101,2.0,5.0,94,0.00,,,0.01,156,weatherlink.com 1.10,2013-09-17 12:45:00,
2013-09-17 08:00:00,45.8,44.0,30.25,East,101,1.0,5.0,94,0.00,,,0.01,67,weatherlink.com 1.10,2013-09-17 13:00:00,
2013-09-17 08:15:00,46.9,45.0,30.24,ESE,102,1.0,7.0,94,0.00,,,0.01,165,weatherlink.com 1.10,2013-09-17 13:15:00,
2013-09-17 08:30:00,48.7,47.0,30.24,SE,136,3.0,10.0,94,0.00,,,0.01,271,weatherlink.com 1.10,2013-09-17 13:30:00,
2013-09-17 08:45:00,49.6,48.0,30.24,SE,140,5.0,10.0,94,0.00,,,0.01,130,weatherlink.com 1.10,2013-09-17 13:45:00,
2013-09-17 09:00:00,50.1,48.0,30.24,SE,142,4.0,10.0,93,0.00,,,0.01,276,weatherlink.com 1.10,2013-09-17 14:00:00,
2013-09-17 09:15:00,51.7,50.0,30.24,SSE,161,8.0,10.0,93,0.00,,,0.01,248,weatherlink.com 1.10,2013-09-17 14:15:00,
2013-09-17 09:30:00,52.5,50.0,30.23,SE,129,6.0,10.0,91,0.00,,,0.01,288,weatherlink.com 1.10,2013-09-17 14:30:00,
2013-09-17 09:45:00,53.6,51.0,30.24,SE,127,6.0,9.0,90,0.00,,,0.01,341,weatherlink.com 1.10,2013-09-17 14:45:00,
2013-09-17 10:00:00,54.5,51.0,30.24,SE,130,6.0,10.0,87,0.00,,,0.01,341,weatherlink.com 1.10,2013-09-17 15:00:00,
2013-09-17 10:15:00,55.7,51.0,30.23,SE,135,7.0,10.0,85,0.00,,,0.01,401,weatherlink.com 1.10,2013-09-17 15:15:00,
2013-09-17 10:30:00,57.2,52.0,30.23,SE,140,9.0,9.0,84,0.00,,,0.01,343,weatherlink.com 1.10,2013-09-17 15:30:00,
2013-09-17 10:45:00,60.0,53.0,30.22,SE,135,7.0,13.0,79,0.00,,,0.01,526,weatherlink.com 1.10,2013-09-17 15:45:00,
2013-09-17 11:00:00,61.5,53.0,30.22,SE,144,10.0,13.0,73,0.00,,,0.01,411,weatherlink.com 1.10,2013-09-17 16:00:00,
2013-09-17 11:16:00,62.1,53.0,30.21,ESE,111,10.0,15.0,71,0.00,,,0.01,570,weatherlink.com 1.10,2013-09-17 16:16:00,
2013-09-17 11:31:00,63.9,52.0,30.20,ESE,122,11.0,16.0,66,0.00,,,0.01,468,weatherlink.com 1.10,2013-09-17 16:31:00,
2013-09-17 11:46:00,64.8,53.0,30.20,SE,137,6.0,22.0,65,0.00,,,0.01,485,weatherlink.com 1.10,2013-09-17 16:46:00,
2013-09-17 12:01:00,64.4,51.0,30.19,SE,142,8.0,16.0,63,0.00,,,0.01,336,weatherlink.com 1.10,2013-09-17 17:01:00,
2013-09-17 12:16:00,65.6,52.0,30.19,SSE,147,11.0,17.0,62,0.00,,,0.01,503,weatherlink.com 1.10,2013-09-17 17:16:00,
2013-09-17 12:31:00,66.6,52.0,30.18,SE,144,13.0,17.0,60,0.00,,,0.01,812,weatherlink.com 1.10,2013-09-17 17:31:00,
2013-09-17 12:46:00,66.2,52.0,30.18,SSE,163,8.0,15.0,61,0.00,,,0.01,315,weatherlink.com 1.10,2013-09-17 17:46:00,
2013-09-17 13:01:00,67.9,53.0,30.17,SSE,166,13.0,18.0,59,0.00,,,0.01,889,weatherlink.com 1.10,2013-09-17 18:01:00,
2013-09-17 13:16:00,67.7,52.0,30.16,SE,138,17.0,21.0,58,0.00,,,0.01,921,weatherlink.com 1.10,2013-09-17 18:16:00,
2013-09-17 13:31:00,67.5,52.0,30.15,SSW,194,10.0,17.0,58,0.00,,,0.01,443,weatherlink.com 1.10,2013-09-17 18:31:00,
2013-09-17 13:46:00,66.3,52.0,30.14,South,180,6.0,16.0,60,0.00,,,0.01,197,weatherlink.com 1.10,2013-09-17 18:46:00,
2013-09-17 14:01:00,66.1,52.0,30.14,SSE,163,9.0,15.0,61,0.00,,,0.01,234,weatherlink.com 1.10,2013-09-17 19:01:00,
2013-09-17 14:16:00,66.5,53.0,30.13,SSE,154,7.0,12.0,62,0.00,,,0.01,243,weatherlink.com 1.10,2013-09-17 19:16:00,
2013-09-17 14:31:00,66.8,52.0,30.12,SSE,165,8.0,16.0,60,0.00,,,0.01,190,weatherlink.com 1.10,2013-09-17 19:31:00,
2013-09-17 14:46:00,67.4,53.0,30.12,South,178,8.0,13.0,60,0.00,,,0.01,578,weatherlink.com 1.10,2013-09-17 19:46:00,
2013-09-17 15:01:00,69.3,52.0,30.11,SSE,167,8.0,16.0,55,0.00,,,0.01,378,weatherlink.com 1.10,2013-09-17 20:01:00,
2013-09-17 15:16:00,68.8,52.0,30.11,SSE,157,15.0,18.0,56,0.00,,,0.01,285,weatherlink.com 1.10,2013-09-17 20:16:00,
2013-09-17 15:31:00,68.6,53.0,30.10,South,174,10.0,16.0,57,0.00,,,0.01,281,weatherlink.com 1.10,2013-09-17 20:31:00,
2013-09-17 15:46:00,68.3,53.0,30.09,SE,130,11.0,14.0,58,0.00,,,0.01,216,weatherlink.com 1.10,2013-09-17 20:46:00,
2013-09-17 16:01:00,67.7,52.0,30.09,SSE,161,7.0,17.0,57,0.00,,,0.01,181,weatherlink.com 1.10,2013-09-17 21:01:00,
2013-09-17 16:16:00,67.5,53.0,30.09,SSE,163,9.0,14.0,60,0.00,,,0.01,149,weatherlink.com 1.10,2013-09-17 21:16:00,
2013-09-17 16:31:00,67.0,53.0,30.08,SE,141,10.0,14.0,62,0.00,,,0.01,148,weatherlink.com 1.10,2013-09-17 21:31:00,
2013-09-17 16:46:00,66.8,53.0,30.08,SSE,165,11.0,15.0,62,0.00,,,0.01,65,weatherlink.com 1.10,2013-09-17 21:46:00,
2013-09-17 17:01:00,66.3,54.0,30.08,SSE,157,7.0,12.0,64,0.00,,,0.01,60,weatherlink.com 1.10,2013-09-17 22:01:00,
2013-09-17 17:16:00,66.3,55.0,30.07,SE,144,9.0,13.0,66,0.00,,,0.01,141,weatherlink.com 1.10,2013-09-17 22:16:00,
2013-09-17 17:31:00,66.4,55.0,30.07,SSE,159,8.0,12.0,66,0.00,,,0.01,69,weatherlink.com 1.10,2013-09-17 22:31:00,
2013-09-17 17:46:00,65.9,55.0,30.07,SSE,163,6.0,11.0,67,0.00,,,0.01,62,weatherlink.com 1.10,2013-09-17 22:46:00,
2013-09-17 18:01:00,65.5,55.0,30.07,SSE,161,5.0,9.0,70,0.00,,,0.01,46,weatherlink.com 1.10,2013-09-17 23:01:00,
2013-09-17 18:16:00,64.6,56.0,30.06,SE,146,4.0,10.0,73,0.00,,,0.01,21,weatherlink.com 1.10,2013-09-17 23:16:00,
2013-09-17 18:31:00,63.8,56.0,30.06,SE,144,7.0,8.0,75,0.00,,,0.01,7,weatherlink.com 1.10,2013-09-17 23:31:00,
2013-09-17 18:46:00,63.3,56.0,30.05,SE,130,5.0,9.0,77,0.00,,,0.01,7,weatherlink.com 1.10,2013-09-17 23:46:00,
2013-09-17 19:02:00,62.5,56.0,30.05,SE,128,4.0,6.0,80,0.00,,,0.01,0,weatherlink.com 1.10,2013-09-18 00:02:00,
2013-09-17 19:17:00,62.0,56.0,30.05,SE,128,4.0,7.0,82,0.00,,,0.01,0,weatherlink.com 1.10,2013-09-18 00:17:00,
2013-09-17 19:32:00,61.9,56.0,30.04,SE,130,6.0,9.0,82,0.00,,,0.01,0,weatherlink.com 1.10,2013-09-18 00:32:00,
2013-09-17 19:47:00,61.9,56.0,30.04,SE,128,6.0,8.0,82,0.00,,,0.01,0,weatherlink.com 1.10,2013-09-18 00:47:00,
2013-09-17 20:02:00,62.0,56.0,30.04,SE,131,7.0,9.0,81,0.00,,,0.01,0,weatherlink.com 1.10,2013-09-18 01:02:00,
2013-09-17 20:17:00,61.9,56.0,30.04,SE,135,8.0,11.0,81,0.00,,,0.01,0,weatherlink.com 1.10,2013-09-18 01:17:00,
2013-09-17 20:32:00,61.9,56.0,30.04,SE,138,7.0,12.0,81,0.00,,,0.01,0,weatherlink.com 1.10,2013-09-18 01:32:00,
2013-09-17 20:47:00,61.8,56.0,30.04,SE,140,10.0,13.0,81,0.00,,,0.01,0,weatherlink.com 1.10,2013-09-18 01:47:00,
2013-09-17 21:02:00,61.9,56.0,30.04,SE,145,8.0,13.0,80,0.00,,,0.01,0,weatherlink.com 1.10,2013-09-18 02:02:00,
2013-09-17 21:17:00,61.8,56.0,30.03,SE,133,11.0,13.0,80,0.00,,,0.01,0,weatherlink.com 1.10,2013-09-18 02:17:00,
2013-09-17 21:32:00,61.8,56.0,30.03,SE,130,5.0,13.0,80,0.00,,,0.01,0,weatherlink.com 1.10,2013-09-18 02:32:00,
2013-09-17 21:47:00,61.7,56.0,30.03,SE,137,8.0,17.0,80,0.00,,,0.01,0,weatherlink.com 1.10,2013-09-18 02:47:00,
2013-09-17 22:02:00,61.9,55.0,30.02,SE,140,9.0,14.0,79,0.00,,,0.01,0,weatherlink.com 1.10,2013-09-18 03:02:00,
2013-09-17 22:17:00,61.7,55.0,30.02,SE,136,9.0,14.0,79,0.00,,,0.01,0,weatherlink.com 1.10,2013-09-18 03:17:00,
2013-09-17 22:32:00,61.7,55.0,30.03,SE,140,6.0,12.0,79,0.00,,,0.01,0,weatherlink.com 1.10,2013-09-18 03:32:00,
2013-09-17 22:47:00,61.7,55.0,30.02,SSE,151,10.0,13.0,78,0.00,,,0.01,0,weatherlink.com 1.10,2013-09-18 03:47:00,
2013-09-17 23:02:00,61.7,55.0,30.02,SE,146,5.0,10.0,78,0.00,,,0.01,0,weatherlink.com 1.10,2013-09-18 04:02:00,
2013-09-17 23:17:00,61.4,55.0,30.02,SE,136,3.0,6.0,79,0.00,,,0.01,0,weatherlink.com 1.10,2013-09-18 04:17:00,
2013-09-17 23:32:00,61.3,55.0,30.02,SE,136,4.0,6.0,79,0.00,,,0.01,0,weatherlink.com 1.10,2013-09-18 04:32:00,
2013-09-17 23:47:00,61.2,55.0,30.01,SE,136,5.0,6.0,80,0.00,,,0.01,0,weatherlink.com 1.10,2013-09-18 04:47:00,